createdAt,value
2022-10-11T00:00:56.476Z,17.18
2022-10-11T00:05:00.124Z,17.15
2022-10-11T00:09:03.661Z,17.14
2022-10-11T00:13:09.547Z,17.15
2022-10-11T00:17:12.948Z,17.15
2022-10-11T00:21:17.869Z,17.16
2022-10-11T00:25:21.009Z,17.21
2022-10-11T00:29:26.392Z,17.26
2022-10-11T00:33:30.034Z,17.29
2022-10-11T00:37:33.846Z,17.34
2022-10-11T00:41:37.416Z,17.36
2022-10-11T00:46:32.626Z,17.41
2022-10-11T00:50:37.959Z,17.43
2022-10-11T00:54:44.920Z,17.47
2022-10-11T00:58:48.925Z,17.49
2022-10-11T01:02:53.960Z,17.50
2022-10-11T01:06:58.887Z,17.48
2022-10-11T01:11:03.018Z,17.48
2022-10-11T01:15:18.258Z,17.47
2022-10-11T01:19:45.986Z,17.46
2022-10-11T01:24:20.580Z,17.42
2022-10-11T01:28:38.469Z,17.39
2022-10-11T01:32:52.620Z,17.35
2022-10-11T01:41:27.556Z,17.27
2022-10-11T01:45:31.694Z,17.26
2022-10-11T01:49:36.521Z,17.26
2022-10-11T01:53:54.330Z,17.26
2022-10-11T01:58:11.595Z,17.27
2022-10-11T02:02:29.172Z,17.25
2022-10-11T02:06:41.584Z,17.21
2022-10-11T02:10:50.764Z,17.16
2022-10-11T02:14:56.845Z,17.13
2022-10-11T02:19:03.526Z,17.02
2022-10-11T02:23:13.844Z,17.00
2022-10-11T02:27:20.293Z,16.91
2022-10-11T02:31:24.007Z,16.78
2022-10-11T02:35:30.309Z,16.65
2022-10-11T02:39:41.089Z,16.51
2022-10-11T02:43:49.237Z,16.35
2022-10-11T02:47:52.651Z,16.23
2022-10-11T02:51:57.227Z,16.12
2022-10-11T02:56:01.909Z,16.00
2022-10-11T03:00:06.351Z,15.90
2022-10-11T03:04:09.351Z,15.84
2022-10-11T03:08:14.547Z,15.81
2022-10-11T03:12:19.545Z,15.74
2022-10-11T03:16:22.885Z,15.66
2022-10-11T03:20:26.885Z,15.58
2022-10-11T03:24:30.010Z,15.48
2022-10-11T03:28:34.884Z,15.36
2022-10-11T03:32:38.332Z,15.30
2022-10-11T03:36:44.069Z,15.14
2022-10-11T03:40:47.094Z,15.18
2022-10-11T03:44:52.612Z,15.18
2022-10-11T03:48:56.000Z,15.21
2022-10-11T03:52:58.995Z,15.22
2022-10-11T03:57:02.448Z,15.32
2022-10-11T04:01:07.584Z,15.38
2022-10-11T04:05:13.080Z,15.41
2022-10-11T04:09:19.164Z,15.46
2022-10-11T04:13:22.680Z,15.46
2022-10-11T04:17:27.620Z,15.40
2022-10-11T04:21:30.609Z,15.38
2022-10-11T04:25:33.758Z,15.34
2022-10-11T04:29:37.130Z,15.36
2022-10-11T04:33:41.942Z,15.29
2022-10-11T04:37:45.454Z,15.18
2022-10-11T04:41:48.464Z,15.07
2022-10-11T04:45:55.508Z,14.97
2022-10-11T04:50:00.555Z,14.92
2022-10-11T04:54:04.167Z,14.91
2022-10-11T04:58:07.227Z,14.91
2022-10-11T05:02:10.692Z,15.01
2022-10-11T05:06:17.555Z,15.09
2022-10-11T05:10:21.063Z,15.14
2022-10-11T05:14:24.101Z,15.17
2022-10-11T05:18:28.024Z,15.14
2022-10-11T05:22:32.869Z,15.09
2022-10-11T05:26:36.382Z,15.06
2022-10-11T05:30:39.480Z,15.02
2022-10-11T05:34:42.928Z,15.04
2022-10-11T05:38:47.994Z,15.07
2022-10-11T05:42:50.968Z,15.21
2022-10-11T05:51:19.034Z,15.43
2022-10-11T05:55:24.071Z,15.57
2022-10-11T05:59:27.089Z,15.69
2022-10-11T06:03:30.585Z,15.84
2022-10-11T06:07:34.575Z,16.00
2022-10-11T06:11:41.459Z,16.26
2022-10-11T06:15:44.997Z,16.48
2022-10-11T06:19:48.504Z,16.69
2022-10-11T06:23:55.578Z,16.86
2022-10-11T06:28:03.359Z,16.99
2022-10-11T06:32:06.769Z,17.21
2022-10-11T06:36:13.511Z,17.48
2022-10-11T06:40:17.310Z,17.77
2022-10-11T06:44:22.418Z,18.13
2022-10-11T06:48:25.931Z,18.49
2022-10-11T06:52:28.985Z,18.85
2022-10-11T06:56:33.108Z,19.25
2022-10-11T07:00:38.277Z,19.72
2022-10-11T07:04:41.953Z,20.20
2022-10-11T07:08:45.826Z,20.68
2022-10-11T07:12:48.897Z,21.21
2022-10-11T07:16:53.886Z,21.76
2022-10-11T07:20:57.470Z,22.18
2022-10-11T07:25:01.007Z,22.49
2022-10-11T07:29:04.590Z,22.63
2022-10-11T07:33:09.992Z,22.55
2022-10-11T07:37:13.462Z,22.37
2022-10-11T07:41:17.231Z,22.24
2022-10-11T07:45:20.793Z,22.18
2022-10-11T07:49:25.263Z,22.19
2022-10-11T07:53:28.698Z,22.20
2022-10-11T07:57:32.132Z,22.20
2022-10-11T08:01:35.888Z,22.16
2022-10-11T08:05:40.768Z,22.17
2022-10-11T08:09:43.880Z,22.13
2022-10-11T08:13:47.397Z,22.08
2022-10-11T08:22:01.370Z,21.95
2022-10-11T08:26:05.666Z,21.88
2022-10-11T08:30:10.244Z,21.83
2022-10-11T08:34:13.862Z,21.81
2022-10-11T08:38:18.991Z,21.80
2022-10-11T08:42:32.854Z,21.72
2022-10-11T08:46:39.329Z,21.64
2022-10-11T08:50:43.990Z,21.59
2022-10-11T08:54:53.097Z,21.55
2022-10-11T08:59:02.661Z,21.47
2022-10-11T09:03:17.039Z,21.45
2022-10-11T09:07:32.261Z,21.54
2022-10-11T09:11:45.649Z,21.71
2022-10-11T09:15:57.504Z,21.91
2022-10-11T09:20:20.761Z,22.13
2022-10-11T09:24:39.159Z,22.43
2022-10-11T09:28:58.618Z,22.74
2022-10-11T09:33:15.154Z,23.07
2022-10-11T09:37:25.701Z,23.32
2022-10-11T09:41:36.613Z,23.53
2022-10-11T09:45:49.277Z,23.63
2022-10-11T09:49:57.827Z,23.66
2022-10-11T09:54:02.565Z,23.60
2022-10-11T09:58:07.060Z,23.45
2022-10-11T10:02:23.236Z,23.20
2022-10-11T10:06:29.047Z,22.94
2022-10-11T10:10:35.915Z,22.68
2022-10-11T10:14:39.614Z,22.47
2022-10-11T10:18:52.763Z,22.33
2022-10-11T10:22:56.997Z,22.22
2022-10-11T10:27:18.819Z,22.10
2022-10-11T10:31:24.269Z,21.98
2022-10-11T10:35:46.843Z,21.84
2022-10-11T10:39:54.440Z,21.68
2022-10-11T10:44:00.484Z,21.55
2022-10-11T10:48:19.877Z,21.46
2022-10-11T10:52:49.076Z,21.42
2022-10-11T10:56:54.551Z,21.49
2022-10-11T11:01:05.205Z,21.64
2022-10-11T11:05:19.367Z,21.84
2022-10-11T11:09:36.506Z,22.03
2022-10-11T11:13:52.594Z,22.26
2022-10-11T11:18:13.948Z,22.53
2022-10-11T11:22:30.492Z,22.85
2022-10-11T11:26:47.324Z,23.19
2022-10-11T11:31:00.182Z,23.56
2022-10-11T11:35:07.663Z,23.92
2022-10-11T11:39:18.034Z,24.25
2022-10-11T11:43:27.884Z,24.51
2022-10-11T11:47:34.942Z,24.72
2022-10-11T11:51:44.874Z,24.88
2022-10-11T11:55:56.151Z,24.91
2022-10-11T12:00:06.330Z,24.84
2022-10-11T12:04:28.718Z,24.68
2022-10-11T12:08:35.633Z,24.50
2022-10-11T12:12:39.456Z,24.33
2022-10-11T12:17:09.103Z,24.21
2022-10-11T12:21:22.105Z,24.11
2022-10-11T12:25:36.598Z,24.07
2022-10-11T12:29:46.910Z,24.07
2022-10-11T12:33:55.040Z,24.09
2022-10-11T12:38:07.069Z,24.13
2022-10-11T12:42:24.832Z,24.17
2022-10-11T12:47:04.362Z,24.24
2022-10-11T12:51:27.202Z,24.42
2022-10-11T12:55:49.313Z,24.78
2022-10-11T12:59:52.782Z,25.21
2022-10-11T13:04:03.181Z,25.68
2022-10-11T13:08:13.379Z,26.02
2022-10-11T13:12:19.342Z,26.26
2022-10-11T13:16:25.513Z,26.43
2022-10-11T13:20:32.747Z,26.54
2022-10-11T13:24:41.916Z,26.49
2022-10-11T13:28:45.063Z,26.28
2022-10-11T13:32:50.994Z,25.99
2022-10-11T13:36:59.305Z,25.75
2022-10-11T13:41:09.009Z,25.52
2022-10-11T13:45:14.565Z,25.27
2022-10-11T13:49:31.923Z,25.02
2022-10-11T13:53:35.455Z,24.73
2022-10-11T13:57:43.996Z,24.48
2022-10-11T14:01:48.472Z,24.25
2022-10-11T14:05:57.485Z,24.07
2022-10-11T14:10:01.223Z,23.91
2022-10-11T14:14:41.857Z,23.81
2022-10-11T14:18:47.858Z,23.73
2022-10-11T14:22:53.888Z,23.67
2022-10-11T14:26:59.523Z,23.52
2022-10-11T14:31:05.201Z,23.52
2022-10-11T14:35:17.289Z,23.36
2022-10-11T14:39:23.509Z,23.18
2022-10-11T14:43:27.591Z,23.07
2022-10-11T14:47:34.123Z,22.94
2022-10-11T14:51:38.737Z,22.80
2022-10-11T14:55:44.241Z,22.67
2022-10-11T14:59:47.972Z,22.43
2022-10-11T15:03:53.893Z,22.46
2022-10-11T15:07:57.374Z,22.51
2022-10-11T15:12:01.465Z,22.49
2022-10-11T15:16:05.133Z,22.44
2022-10-11T15:20:19.592Z,22.32
2022-10-11T15:24:23.942Z,21.99
2022-10-11T15:28:29.993Z,22.10
2022-10-11T15:32:33.568Z,22.00
2022-10-11T15:36:39.017Z,21.72
2022-10-11T15:40:42.579Z,21.59
2022-10-11T15:44:47.439Z,21.60
2022-10-11T15:48:52.211Z,21.60
2022-10-11T15:52:58.805Z,21.43
2022-10-11T15:57:02.926Z,21.26
2022-10-11T16:01:09.141Z,21.09
2022-10-11T16:05:13.301Z,21.21
2022-10-11T16:09:18.602Z,20.96
2022-10-11T16:13:29.139Z,20.77
2022-10-11T16:17:32.975Z,20.34
2022-10-11T16:21:36.484Z,20.31
2022-10-11T16:25:42.045Z,19.87
2022-10-11T16:29:46.390Z,19.80
2022-10-11T16:33:51.208Z,19.64
2022-10-11T16:37:54.728Z,19.28
2022-10-11T16:41:59.878Z,19.14
2022-10-11T16:46:03.505Z,19.31
2022-10-11T16:50:09.164Z,19.19
2022-10-11T16:54:15.560Z,18.99
2022-10-11T16:58:24.901Z,18.72
2022-10-11T17:02:32.452Z,18.62
2022-10-11T17:06:36.460Z,18.63
2022-10-11T17:10:44.444Z,18.37
2022-10-11T17:14:50.555Z,18.03
2022-10-11T17:18:54.360Z,18.07
2022-10-11T17:22:58.187Z,17.93
2022-10-11T17:27:01.529Z,18.18
2022-10-11T17:31:08.437Z,18.16
2022-10-11T17:35:13.273Z,18.02
2022-10-11T17:39:20.965Z,18.02
2022-10-11T17:43:25.469Z,17.95
2022-10-11T17:47:33.201Z,18.19
2022-10-11T17:51:38.526Z,18.16
2022-10-11T17:55:43.895Z,18.05
2022-10-11T17:59:48.913Z,18.09
2022-10-11T18:03:55.438Z,18.18
2022-10-11T18:07:59.628Z,18.00
2022-10-11T18:12:03.734Z,18.01
2022-10-11T18:16:09.699Z,17.99
2022-10-11T18:20:19.110Z,17.84
2022-10-11T18:24:23.943Z,18.14
2022-10-11T18:28:29.905Z,17.90
2022-10-11T18:32:35.413Z,17.84
2022-10-11T18:36:44.240Z,18.06
2022-10-11T18:40:48.794Z,17.82
2022-10-11T18:44:54.237Z,17.75
2022-10-11T18:49:00.211Z,17.90
2022-10-11T18:53:06.166Z,17.90
2022-10-11T18:57:11.028Z,18.00
2022-10-11T19:01:18.414Z,17.94
2022-10-11T19:05:23.240Z,17.92
2022-10-11T19:09:31.441Z,17.89
2022-10-11T19:13:40.089Z,17.87
2022-10-11T19:17:44.049Z,17.96
2022-10-11T19:21:55.873Z,17.89
2022-10-11T19:26:04.548Z,18.01
2022-10-11T19:30:19.233Z,17.70
2022-10-11T19:34:23.524Z,18.13
2022-10-11T19:38:27.576Z,18.12
2022-10-11T19:42:33.583Z,18.06
2022-10-11T19:46:55.924Z,18.09
2022-10-11T19:51:06.816Z,18.09
2022-10-11T19:55:10.984Z,18.08
2022-10-11T19:59:16.987Z,18.06
2022-10-11T20:03:20.818Z,18.03
2022-10-11T20:07:24.422Z,18.00
2022-10-11T20:11:29.835Z,17.97
2022-10-11T20:15:38.670Z,17.94
2022-10-11T20:19:44.315Z,17.92
2022-10-11T20:23:49.735Z,17.89
2022-10-11T20:27:52.896Z,17.86
2022-10-11T20:31:59.493Z,17.83
2022-10-11T20:36:07.189Z,17.79
2022-10-11T20:40:14.567Z,17.76
2022-10-11T20:44:18.006Z,17.69
2022-10-11T20:48:23.636Z,17.65
2022-10-11T20:52:27.495Z,17.59
2022-10-11T20:56:31.290Z,17.53
2022-10-11T21:00:35.188Z,17.46
2022-10-11T21:04:40.254Z,17.36
2022-10-11T21:08:43.530Z,17.23
2022-10-11T21:12:47.423Z,17.10
2022-10-11T21:16:51.305Z,16.96
2022-10-11T21:20:56.127Z,16.87
2022-10-11T21:24:59.770Z,16.75
2022-10-11T21:29:04.623Z,16.65
2022-10-11T21:33:07.905Z,16.55
2022-10-11T21:37:12.908Z,16.45
2022-10-11T21:41:18.275Z,16.34
2022-10-11T21:45:21.933Z,16.24
2022-10-11T21:49:25.176Z,16.14
2022-10-11T21:53:30.067Z,16.03
2022-10-11T21:57:33.580Z,15.93
2022-10-11T22:01:37.920Z,15.83
2022-10-11T22:05:44.671Z,15.74
2022-10-11T22:09:49.588Z,15.67
2022-10-11T22:13:53.195Z,15.58
2022-10-11T22:17:56.188Z,15.52
2022-10-11T22:21:59.546Z,15.43
2022-10-11T22:26:09.317Z,15.35
2022-10-11T22:30:13.443Z,15.32
2022-10-11T22:34:16.555Z,15.26
2022-10-11T22:38:20.122Z,15.21
2022-10-11T22:42:27.554Z,15.17
2022-10-11T22:46:31.373Z,15.12
2022-10-11T22:50:35.013Z,15.07
2022-10-11T22:54:38.583Z,15.02
2022-10-11T22:58:42.953Z,14.98
2022-10-11T23:02:46.226Z,14.93
2022-10-11T23:06:49.795Z,14.90
2022-10-11T23:10:53.115Z,14.87
2022-10-11T23:14:58.009Z,14.85
2022-10-11T23:19:01.567Z,14.84
2022-10-11T23:23:04.526Z,14.84
2022-10-11T23:27:08.202Z,14.84
2022-10-11T23:31:15.245Z,14.88
2022-10-11T23:35:18.395Z,14.90
2022-10-11T23:39:22.050Z,14.92
2022-10-11T23:43:25.980Z,14.93
2022-10-11T23:47:30.901Z,14.96
2022-10-11T23:51:34.162Z,14.99
2022-10-11T23:55:37.614Z,15.01
2022-10-11T23:59:41.040Z,15.01
